sensor_id;sensor_type;location;lat;lon;timestamp;P1;durP1;ratioP1;P2;durP2;ratioP2
53052;SDS011;38934;52.690;6.184;2023-08-12T00:01:48;10.35;;;6.18;;
53052;SDS011;38934;52.690;6.184;2023-08-12T00:04:14;10.15;;;6.47;;
53052;SDS011;38934;52.690;6.184;2023-08-12T00:06:41;9.73;;;6.80;;
53052;SDS011;38934;52.690;6.184;2023-08-12T00:09:08;9.73;;;7.00;;
53052;SDS011;38934;52.690;6.184;2023-08-12T00:11:35;8.45;;;5.55;;
53052;SDS011;38934;52.690;6.184;2023-08-12T00:14:01;8.02;;;5.75;;
53052;SDS011;38934;52.690;6.184;2023-08-12T00:16:27;13.35;;;7.43;;
53052;SDS011;38934;52.690;6.184;2023-08-12T00:18:53;14.10;;;8.05;;
53052;SDS011;38934;52.690;6.184;2023-08-12T00:21:19;8.77;;;6.70;;
53052;SDS011;38934;52.690;6.184;2023-08-12T00:23:45;12.80;;;7.85;;
53052;SDS011;38934;52.690;6.184;2023-08-12T00:26:12;10.02;;;7.50;;
53052;SDS011;38934;52.690;6.184;2023-08-12T00:28:38;12.02;;;7.80;;
53052;SDS011;38934;52.690;6.184;2023-08-12T00:31:04;13.32;;;7.38;;
53052;SDS011;38934;52.690;6.184;2023-08-12T00:33:30;11.50;;;8.20;;
53052;SDS011;38934;52.690;6.184;2023-08-12T00:35:56;13.13;;;9.52;;
53052;SDS011;38934;52.690;6.184;2023-08-12T00:38:22;13.00;;;8.05;;
53052;SDS011;38934;52.690;6.184;2023-08-12T00:40:48;12.32;;;7.88;;
53052;SDS011;38934;52.690;6.184;2023-08-12T00:43:14;11.95;;;8.15;;
53052;SDS011;38934;52.690;6.184;2023-08-12T00:45:41;12.15;;;7.75;;
53052;SDS011;38934;52.690;6.184;2023-08-12T00:48:07;11.45;;;7.60;;
53052;SDS011;38934;52.690;6.184;2023-08-12T00:50:34;11.75;;;7.28;;
53052;SDS011;38934;52.690;6.184;2023-08-12T00:53:02;12.88;;;8.07;;
53052;SDS011;38934;52.690;6.184;2023-08-12T00:55:28;13.55;;;8.98;;
53052;SDS011;38934;52.690;6.184;2023-08-12T00:57:54;9.95;;;7.53;;
53052;SDS011;38934;52.690;6.184;2023-08-12T01:00:20;16.08;;;9.63;;
53052;SDS011;38934;52.690;6.184;2023-08-12T01:02:46;13.95;;;9.23;;
53052;SDS011;38934;52.690;6.184;2023-08-12T01:05:14;10.30;;;7.72;;
53052;SDS011;38934;52.690;6.184;2023-08-12T01:07:41;10.23;;;6.95;;
53052;SDS011;38934;52.690;6.184;2023-08-12T01:10:08;12.30;;;8.07;;
53052;SDS011;38934;52.690;6.184;2023-08-12T01:12:59;10.02;;;7.00;;
53052;SDS011;38934;52.690;6.184;2023-08-12T01:15:27;10.32;;;7.70;;
53052;SDS011;38934;52.690;6.184;2023-08-12T01:17:54;10.57;;;7.40;;
53052;SDS011;38934;52.690;6.184;2023-08-12T01:20:20;9.52;;;7.45;;
53052;SDS011;38934;52.690;6.184;2023-08-12T01:22:52;9.88;;;6.45;;
53052;SDS011;38934;52.690;6.184;2023-08-12T01:25:23;10.65;;;6.82;;
53052;SDS011;38934;52.690;6.184;2023-08-12T01:27:49;11.98;;;7.97;;
53052;SDS011;38934;52.690;6.184;2023-08-12T01:30:15;9.88;;;7.38;;
53052;SDS011;38934;52.690;6.184;2023-08-12T01:32:47;10.68;;;7.40;;
53052;SDS011;38934;52.690;6.184;2023-08-12T01:35:23;12.30;;;7.93;;
53052;SDS011;38934;52.690;6.184;2023-08-12T01:37:51;12.45;;;7.75;;
53052;SDS011;38934;52.690;6.184;2023-08-12T01:40:18;10.63;;;8.23;;
53052;SDS011;38934;52.690;6.184;2023-08-12T01:42:45;15.07;;;9.35;;
53052;SDS011;38934;52.690;6.184;2023-08-12T01:45:11;11.82;;;8.35;;
53052;SDS011;38934;52.690;6.184;2023-08-12T01:47:37;13.30;;;9.13;;
53052;SDS011;38934;52.690;6.184;2023-08-12T01:50:04;11.25;;;8.10;;
53052;SDS011;38934;52.690;6.184;2023-08-12T01:52:31;11.88;;;8.75;;
53052;SDS011;38934;52.690;6.184;2023-08-12T01:54:57;10.15;;;6.95;;
53052;SDS011;38934;52.690;6.184;2023-08-12T01:57:23;11.32;;;8.52;;
53052;SDS011;38934;52.690;6.184;2023-08-12T01:59:50;12.48;;;8.77;;
53052;SDS011;38934;52.690;6.184;2023-08-12T02:02:16;10.60;;;8.15;;
53052;SDS011;38934;52.690;6.184;2023-08-12T02:04:42;12.07;;;8.55;;
53052;SDS011;38934;52.690;6.184;2023-08-12T02:07:09;17.02;;;9.85;;
53052;SDS011;38934;52.690;6.184;2023-08-12T02:09:35;12.35;;;8.77;;
53052;SDS011;38934;52.690;6.184;2023-08-12T02:12:01;14.00;;;9.50;;
53052;SDS011;38934;52.690;6.184;2023-08-12T02:14:27;13.68;;;9.65;;
53052;SDS011;38934;52.690;6.184;2023-08-12T02:16:53;15.80;;;10.82;;
53052;SDS011;38934;52.690;6.184;2023-08-12T02:19:19;14.38;;;10.43;;
53052;SDS011;38934;52.690;6.184;2023-08-12T02:21:45;17.08;;;10.95;;
53052;SDS011;38934;52.690;6.184;2023-08-12T02:24:11;13.13;;;9.68;;
53052;SDS011;38934;52.690;6.184;2023-08-12T02:26:37;13.70;;;9.32;;
53052;SDS011;38934;52.690;6.184;2023-08-12T02:29:04;15.43;;;10.23;;
53052;SDS011;38934;52.690;6.184;2023-08-12T02:31:30;12.05;;;9.63;;
53052;SDS011;38934;52.690;6.184;2023-08-12T02:33:56;12.32;;;8.73;;
53052;SDS011;38934;52.690;6.184;2023-08-12T02:36:22;13.68;;;9.85;;
53052;SDS011;38934;52.690;6.184;2023-08-12T02:38:48;12.77;;;8.65;;
53052;SDS011;38934;52.690;6.184;2023-08-12T02:41:14;13.40;;;8.55;;
53052;SDS011;38934;52.690;6.184;2023-08-12T02:43:40;12.38;;;8.73;;
53052;SDS011;38934;52.690;6.184;2023-08-12T02:46:06;14.52;;;9.68;;
53052;SDS011;38934;52.690;6.184;2023-08-12T02:48:32;15.90;;;10.60;;
53052;SDS011;38934;52.690;6.184;2023-08-12T02:50:58;13.15;;;9.57;;
53052;SDS011;38934;52.690;6.184;2023-08-12T02:53:24;12.23;;;8.65;;
53052;SDS011;38934;52.690;6.184;2023-08-12T02:55:50;11.07;;;8.57;;
53052;SDS011;38934;52.690;6.184;2023-08-12T02:58:16;13.18;;;8.98;;
53052;SDS011;38934;52.690;6.184;2023-08-12T03:00:42;14.65;;;9.35;;
53052;SDS011;38934;52.690;6.184;2023-08-12T03:03:09;13.35;;;9.43;;
53052;SDS011;38934;52.690;6.184;2023-08-12T03:05:35;16.13;;;10.25;;
53052;SDS011;38934;52.690;6.184;2023-08-12T03:08:02;13.40;;;8.10;;
53052;SDS011;38934;52.690;6.184;2023-08-12T03:10:29;13.88;;;8.43;;
53052;SDS011;38934;52.690;6.184;2023-08-12T03:12:55;13.52;;;9.23;;
53052;SDS011;38934;52.690;6.184;2023-08-12T03:15:21;10.25;;;8.23;;
53052;SDS011;38934;52.690;6.184;2023-08-12T03:17:47;14.07;;;9.52;;
53052;SDS011;38934;52.690;6.184;2023-08-12T03:20:13;13.55;;;8.90;;
53052;SDS011;38934;52.690;6.184;2023-08-12T03:22:39;14.23;;;9.18;;
53052;SDS011;38934;52.690;6.184;2023-08-12T03:25:05;14.88;;;8.98;;
53052;SDS011;38934;52.690;6.184;2023-08-12T03:27:31;13.48;;;9.85;;
53052;SDS011;38934;52.690;6.184;2023-08-12T03:29:57;13.52;;;9.20;;
53052;SDS011;38934;52.690;6.184;2023-08-12T03:32:24;13.32;;;9.20;;
53052;SDS011;38934;52.690;6.184;2023-08-12T03:34:50;17.33;;;9.60;;
53052;SDS011;38934;52.690;6.184;2023-08-12T03:37:16;13.75;;;8.55;;
53052;SDS011;38934;52.690;6.184;2023-08-12T03:39:42;11.95;;;8.75;;
53052;SDS011;38934;52.690;6.184;2023-08-12T03:42:08;14.95;;;9.82;;
53052;SDS011;38934;52.690;6.184;2023-08-12T03:44:34;14.20;;;8.82;;
53052;SDS011;38934;52.690;6.184;2023-08-12T03:47:00;17.35;;;11.88;;
53052;SDS011;38934;52.690;6.184;2023-08-12T03:49:26;14.15;;;10.45;;
53052;SDS011;38934;52.690;6.184;2023-08-12T03:51:52;17.73;;;10.95;;
53052;SDS011;38934;52.690;6.184;2023-08-12T03:54:18;14.13;;;10.93;;
53052;SDS011;38934;52.690;6.184;2023-08-12T03:56:44;17.30;;;11.55;;
53052;SDS011;38934;52.690;6.184;2023-08-12T03:59:10;19.20;;;11.07;;
53052;SDS011;38934;52.690;6.184;2023-08-12T04:01:37;18.02;;;11.10;;
53052;SDS011;38934;52.690;6.184;2023-08-12T04:04:03;17.00;;;10.88;;
53052;SDS011;38934;52.690;6.184;2023-08-12T04:06:29;15.82;;;10.88;;
53052;SDS011;38934;52.690;6.184;2023-08-12T04:08:55;16.98;;;12.10;;
53052;SDS011;38934;52.690;6.184;2023-08-12T04:11:21;17.73;;;12.50;;
53052;SDS011;38934;52.690;6.184;2023-08-12T04:13:47;20.02;;;11.95;;
53052;SDS011;38934;52.690;6.184;2023-08-12T04:16:13;19.65;;;12.07;;
53052;SDS011;38934;52.690;6.184;2023-08-12T04:18:39;17.83;;;12.00;;
53052;SDS011;38934;52.690;6.184;2023-08-12T04:21:05;18.70;;;11.68;;
53052;SDS011;38934;52.690;6.184;2023-08-12T04:23:31;18.98;;;13.05;;
53052;SDS011;38934;52.690;6.184;2023-08-12T04:25:57;20.83;;;13.65;;
53052;SDS011;38934;52.690;6.184;2023-08-12T04:28:23;18.67;;;13.13;;
53052;SDS011;38934;52.690;6.184;2023-08-12T04:30:50;19.88;;;12.25;;
53052;SDS011;38934;52.690;6.184;2023-08-12T04:33:17;22.13;;;15.05;;
53052;SDS011;38934;52.690;6.184;2023-08-12T04:35:45;21.48;;;14.32;;
53052;SDS011;38934;52.690;6.184;2023-08-12T04:38:11;18.02;;;13.38;;
53052;SDS011;38934;52.690;6.184;2023-08-12T04:40:40;22.73;;;14.93;;
53052;SDS011;38934;52.690;6.184;2023-08-12T04:43:07;17.25;;;12.88;;
53052;SDS011;38934;52.690;6.184;2023-08-12T04:45:33;26.95;;;16.83;;
53052;SDS011;38934;52.690;6.184;2023-08-12T04:47:59;21.33;;;14.20;;
53052;SDS011;38934;52.690;6.184;2023-08-12T04:50:25;20.65;;;13.73;;
53052;SDS011;38934;52.690;6.184;2023-08-12T04:52:51;20.85;;;14.23;;
53052;SDS011;38934;52.690;6.184;2023-08-12T04:55:17;16.88;;;12.50;;
53052;SDS011;38934;52.690;6.184;2023-08-12T04:57:43;23.17;;;15.02;;
53052;SDS011;38934;52.690;6.184;2023-08-12T05:00:09;19.38;;;13.27;;
53052;SDS011;38934;52.690;6.184;2023-08-12T05:02:36;18.95;;;13.55;;
53052;SDS011;38934;52.690;6.184;2023-08-12T05:05:02;25.45;;;16.13;;
53052;SDS011;38934;52.690;6.184;2023-08-12T05:07:28;22.90;;;15.52;;
53052;SDS011;38934;52.690;6.184;2023-08-12T05:09:55;23.25;;;15.48;;
53052;SDS011;38934;52.690;6.184;2023-08-12T05:12:21;22.35;;;16.15;;
53052;SDS011;38934;52.690;6.184;2023-08-12T05:14:47;22.90;;;16.88;;
53052;SDS011;38934;52.690;6.184;2023-08-12T05:17:13;24.05;;;15.77;;
53052;SDS011;38934;52.690;6.184;2023-08-12T05:19:40;27.02;;;18.20;;
53052;SDS011;38934;52.690;6.184;2023-08-12T05:22:06;21.70;;;14.13;;
53052;SDS011;38934;52.690;6.184;2023-08-12T05:24:32;22.13;;;16.63;;
53052;SDS011;38934;52.690;6.184;2023-08-12T05:26:58;22.10;;;15.68;;
53052;SDS011;38934;52.690;6.184;2023-08-12T05:29:24;21.67;;;14.88;;
53052;SDS011;38934;52.690;6.184;2023-08-12T05:31:50;23.30;;;16.52;;
53052;SDS011;38934;52.690;6.184;2023-08-12T05:34:16;19.10;;;15.02;;
53052;SDS011;38934;52.690;6.184;2023-08-12T05:36:42;22.65;;;16.25;;
53052;SDS011;38934;52.690;6.184;2023-08-12T05:39:08;26.83;;;17.15;;
53052;SDS011;38934;52.690;6.184;2023-08-12T05:41:34;29.80;;;18.58;;
53052;SDS011;38934;52.690;6.184;2023-08-12T05:44:00;25.27;;;16.10;;
53052;SDS011;38934;52.690;6.184;2023-08-12T05:46:26;26.80;;;20.05;;
53052;SDS011;38934;52.690;6.184;2023-08-12T05:48:52;23.80;;;17.73;;
53052;SDS011;38934;52.690;6.184;2023-08-12T05:51:18;23.35;;;17.58;;
53052;SDS011;38934;52.690;6.184;2023-08-12T05:53:44;22.27;;;16.48;;
53052;SDS011;38934;52.690;6.184;2023-08-12T05:56:10;27.73;;;18.80;;
53052;SDS011;38934;52.690;6.184;2023-08-12T05:58:36;26.50;;;18.50;;
53052;SDS011;38934;52.690;6.184;2023-08-12T06:01:02;25.67;;;17.50;;
53052;SDS011;38934;52.690;6.184;2023-08-12T06:03:28;31.17;;;19.48;;
53052;SDS011;38934;52.690;6.184;2023-08-12T06:05:55;29.23;;;18.90;;
53052;SDS011;38934;52.690;6.184;2023-08-12T06:08:21;28.50;;;20.58;;
53052;SDS011;38934;52.690;6.184;2023-08-12T06:10:49;30.17;;;22.13;;
53052;SDS011;38934;52.690;6.184;2023-08-12T06:13:21;30.90;;;22.10;;
53052;SDS011;38934;52.690;6.184;2023-08-12T06:15:49;29.08;;;21.40;;
53052;SDS011;38934;52.690;6.184;2023-08-12T06:18:16;34.28;;;23.77;;
53052;SDS011;38934;52.690;6.184;2023-08-12T06:20:42;29.58;;;21.15;;
53052;SDS011;38934;52.690;6.184;2023-08-12T06:23:08;31.85;;;22.88;;
53052;SDS011;38934;52.690;6.184;2023-08-12T06:25:34;34.92;;;23.23;;
53052;SDS011;38934;52.690;6.184;2023-08-12T06:28:01;27.45;;;20.95;;
53052;SDS011;38934;52.690;6.184;2023-08-12T06:30:29;27.77;;;21.38;;
53052;SDS011;38934;52.690;6.184;2023-08-12T06:32:55;32.70;;;24.40;;
53052;SDS011;38934;52.690;6.184;2023-08-12T06:35:21;26.02;;;21.45;;
53052;SDS011;38934;52.690;6.184;2023-08-12T06:37:47;34.15;;;22.55;;
53052;SDS011;38934;52.690;6.184;2023-08-12T06:40:13;30.63;;;22.60;;
53052;SDS011;38934;52.690;6.184;2023-08-12T06:42:39;30.23;;;22.20;;
53052;SDS011;38934;52.690;6.184;2023-08-12T06:45:05;32.05;;;24.27;;
53052;SDS011;38934;52.690;6.184;2023-08-12T06:47:31;28.77;;;22.23;;
53052;SDS011;38934;52.690;6.184;2023-08-12T06:49:58;36.05;;;24.08;;
53052;SDS011;38934;52.690;6.184;2023-08-12T06:52:24;30.88;;;22.45;;
53052;SDS011;38934;52.690;6.184;2023-08-12T06:54:50;37.58;;;23.15;;
53052;SDS011;38934;52.690;6.184;2023-08-12T06:57:16;32.72;;;22.63;;
53052;SDS011;38934;52.690;6.184;2023-08-12T06:59:42;29.30;;;21.10;;
53052;SDS011;38934;52.690;6.184;2023-08-12T07:02:08;30.50;;;22.55;;
53052;SDS011;38934;52.690;6.184;2023-08-12T07:04:34;31.88;;;23.35;;
53052;SDS011;38934;52.690;6.184;2023-08-12T07:07:00;31.75;;;22.85;;
53052;SDS011;38934;52.690;6.184;2023-08-12T07:09:26;31.63;;;23.83;;
53052;SDS011;38934;52.690;6.184;2023-08-12T07:11:52;30.33;;;21.92;;
53052;SDS011;38934;52.690;6.184;2023-08-12T07:14:18;34.00;;;22.63;;
53052;SDS011;38934;52.690;6.184;2023-08-12T07:16:44;32.88;;;23.73;;
53052;SDS011;38934;52.690;6.184;2023-08-12T07:19:10;33.42;;;23.42;;
53052;SDS011;38934;52.690;6.184;2023-08-12T07:21:36;30.83;;;22.58;;
53052;SDS011;38934;52.690;6.184;2023-08-12T07:24:02;29.42;;;22.10;;
53052;SDS011;38934;52.690;6.184;2023-08-12T07:26:28;33.25;;;23.58;;
53052;SDS011;38934;52.690;6.184;2023-08-12T07:28:56;29.80;;;21.75;;
53052;SDS011;38934;52.690;6.184;2023-08-12T07:31:22;29.85;;;21.15;;
53052;SDS011;38934;52.690;6.184;2023-08-12T07:33:48;31.10;;;22.52;;
53052;SDS011;38934;52.690;6.184;2023-08-12T07:36:14;28.90;;;22.27;;
53052;SDS011;38934;52.690;6.184;2023-08-12T07:38:40;32.08;;;22.70;;
53052;SDS011;38934;52.690;6.184;2023-08-12T07:41:06;35.72;;;22.90;;
53052;SDS011;38934;52.690;6.184;2023-08-12T07:43:32;34.92;;;22.83;;
53052;SDS011;38934;52.690;6.184;2023-08-12T07:45:58;29.58;;;20.80;;
53052;SDS011;38934;52.690;6.184;2023-08-12T07:48:24;33.20;;;22.17;;
53052;SDS011;38934;52.690;6.184;2023-08-12T07:50:57;32.90;;;22.52;;
53052;SDS011;38934;52.690;6.184;2023-08-12T07:53:23;31.40;;;22.33;;
53052;SDS011;38934;52.690;6.184;2023-08-12T07:55:50;31.58;;;22.20;;
53052;SDS011;38934;52.690;6.184;2023-08-12T07:58:16;31.88;;;23.38;;
53052;SDS011;38934;52.690;6.184;2023-08-12T08:00:42;33.38;;;22.63;;
53052;SDS011;38934;52.690;6.184;2023-08-12T08:03:08;30.23;;;21.55;;
53052;SDS011;38934;52.690;6.184;2023-08-12T08:05:39;30.55;;;22.05;;
53052;SDS011;38934;52.690;6.184;2023-08-12T08:22:26;22.55;;;15.82;;
53052;SDS011;38934;52.690;6.184;2023-08-12T08:25:12;18.15;;;13.35;;
53052;SDS011;38934;52.690;6.184;2023-08-12T08:27:38;19.27;;;13.43;;
53052;SDS011;38934;52.690;6.184;2023-08-12T08:30:11;17.90;;;10.98;;
53052;SDS011;38934;52.690;6.184;2023-08-12T08:32:38;16.98;;;9.75;;
53052;SDS011;38934;52.690;6.184;2023-08-12T08:35:11;16.10;;;9.32;;
53052;SDS011;38934;52.690;6.184;2023-08-12T08:37:40;13.95;;;10.15;;
53052;SDS011;38934;52.690;6.184;2023-08-12T09:28:56;7.18;;;5.35;;
53052;SDS011;38934;52.690;6.184;2023-08-12T09:31:26;9.57;;;5.88;;
53052;SDS011;38934;52.690;6.184;2023-08-12T09:33:56;7.68;;;5.45;;
53052;SDS011;38934;52.690;6.184;2023-08-12T09:36:23;7.57;;;5.03;;
53052;SDS011;38934;52.690;6.184;2023-08-12T09:38:49;6.32;;;4.82;;
53052;SDS011;38934;52.690;6.184;2023-08-12T09:41:16;5.57;;;4.22;;
53052;SDS011;38934;52.690;6.184;2023-08-12T09:43:42;7.45;;;5.05;;
53052;SDS011;38934;52.690;6.184;2023-08-12T09:46:13;8.93;;;4.82;;
53052;SDS011;38934;52.690;6.184;2023-08-12T09:48:40;7.32;;;4.80;;
53052;SDS011;38934;52.690;6.184;2023-08-12T09:51:06;6.03;;;4.82;;
53052;SDS011;38934;52.690;6.184;2023-08-12T09:53:32;7.90;;;4.80;;
53052;SDS011;38934;52.690;6.184;2023-08-12T09:56:04;7.10;;;5.20;;
53052;SDS011;38934;52.690;6.184;2023-08-12T09:58:32;4.70;;;3.80;;
53052;SDS011;38934;52.690;6.184;2023-08-12T10:00:59;5.60;;;4.10;;
53052;SDS011;38934;52.690;6.184;2023-08-12T10:03:26;4.35;;;3.55;;
53052;SDS011;38934;52.690;6.184;2023-08-12T10:05:53;4.07;;;3.15;;
53052;SDS011;38934;52.690;6.184;2023-08-12T10:08:20;3.95;;;3.13;;
53052;SDS011;38934;52.690;6.184;2023-08-12T10:10:46;3.72;;;3.40;;
53052;SDS011;38934;52.690;6.184;2023-08-12T10:13:12;3.70;;;3.28;;
53052;SDS011;38934;52.690;6.184;2023-08-12T10:15:41;7.35;;;3.67;;
53052;SDS011;38934;52.690;6.184;2023-08-12T10:18:07;5.03;;;3.65;;
53052;SDS011;38934;52.690;6.184;2023-08-12T10:20:37;4.03;;;3.25;;
53052;SDS011;38934;52.690;6.184;2023-08-12T10:23:17;4.15;;;3.40;;
53052;SDS011;38934;52.690;6.184;2023-08-12T10:25:49;4.90;;;3.50;;
53052;SDS011;38934;52.690;6.184;2023-08-12T10:31:06;4.50;;;3.50;;
53052;SDS011;38934;52.690;6.184;2023-08-12T10:34:26;4.00;;;3.42;;
53052;SDS011;38934;52.690;6.184;2023-08-12T10:41:22;3.88;;;2.50;;
53052;SDS011;38934;52.690;6.184;2023-08-12T10:46:38;1.92;;;1.13;;
53052;SDS011;38934;52.690;6.184;2023-08-12T10:51:40;1.88;;;1.70;;
53052;SDS011;38934;52.690;6.184;2023-08-12T10:54:14;1.10;;;1.00;;
53052;SDS011;38934;52.690;6.184;2023-08-12T11:04:54;2.00;;;1.80;;
53052;SDS011;38934;52.690;6.184;2023-08-12T11:07:24;2.17;;;1.83;;
53052;SDS011;38934;52.690;6.184;2023-08-12T11:10:16;2.88;;;2.05;;
53052;SDS011;38934;52.690;6.184;2023-08-12T11:15:41;3.17;;;1.90;;
53052;SDS011;38934;52.690;6.184;2023-08-12T11:21:59;4.80;;;2.20;;
53052;SDS011;38934;52.690;6.184;2023-08-12T11:27:45;6.45;;;3.17;;
53052;SDS011;38934;52.690;6.184;2023-08-12T11:30:14;7.05;;;3.38;;
53052;SDS011;38934;52.690;6.184;2023-08-12T11:32:41;7.47;;;3.75;;
53052;SDS011;38934;52.690;6.184;2023-08-12T11:35:18;6.30;;;3.17;;
53052;SDS011;38934;52.690;6.184;2023-08-12T11:37:44;6.97;;;3.63;;
53052;SDS011;38934;52.690;6.184;2023-08-12T11:40:12;9.05;;;4.05;;
53052;SDS011;38934;52.690;6.184;2023-08-12T11:42:41;7.25;;;3.08;;
53052;SDS011;38934;52.690;6.184;2023-08-12T11:45:09;5.82;;;3.00;;
53052;SDS011;38934;52.690;6.184;2023-08-12T11:47:36;6.80;;;2.60;;
53052;SDS011;38934;52.690;6.184;2023-08-12T11:50:05;7.07;;;3.28;;
53052;SDS011;38934;52.690;6.184;2023-08-12T11:52:32;6.22;;;2.60;;
53052;SDS011;38934;52.690;6.184;2023-08-12T11:54:58;6.00;;;3.08;;
53052;SDS011;38934;52.690;6.184;2023-08-12T12:00:47;5.90;;;2.80;;
53052;SDS011;38934;52.690;6.184;2023-08-12T12:03:23;6.57;;;2.40;;
53052;SDS011;38934;52.690;6.184;2023-08-12T12:09:10;6.25;;;2.67;;
53052;SDS011;38934;52.690;6.184;2023-08-12T12:11:41;3.97;;;2.35;;
53052;SDS011;38934;52.690;6.184;2023-08-12T12:14:08;5.60;;;2.40;;
53052;SDS011;38934;52.690;6.184;2023-08-12T12:19:17;5.45;;;2.10;;
53052;SDS011;38934;52.690;6.184;2023-08-12T12:21:52;6.90;;;2.40;;
53052;SDS011;38934;52.690;6.184;2023-08-12T12:24:21;7.43;;;2.45;;
53052;SDS011;38934;52.690;6.184;2023-08-12T12:26:46;5.47;;;2.58;;
53052;SDS011;38934;52.690;6.184;2023-08-12T12:29:15;5.55;;;2.08;;
53052;SDS011;38934;52.690;6.184;2023-08-12T12:31:41;5.35;;;2.25;;
53052;SDS011;38934;52.690;6.184;2023-08-12T12:34:07;8.48;;;2.42;;
53052;SDS011;38934;52.690;6.184;2023-08-12T12:36:35;5.63;;;2.30;;
53052;SDS011;38934;52.690;6.184;2023-08-12T12:39:04;6.40;;;2.40;;
53052;SDS011;38934;52.690;6.184;2023-08-12T12:41:30;6.25;;;2.42;;
53052;SDS011;38934;52.690;6.184;2023-08-12T12:43:56;7.55;;;2.40;;
53052;SDS011;38934;52.690;6.184;2023-08-12T12:46:22;6.78;;;2.33;;
53052;SDS011;38934;52.690;6.184;2023-08-12T12:48:48;7.70;;;2.58;;
53052;SDS011;38934;52.690;6.184;2023-08-12T12:51:13;8.48;;;2.60;;
53052;SDS011;38934;52.690;6.184;2023-08-12T12:53:40;7.18;;;2.15;;
53052;SDS011;38934;52.690;6.184;2023-08-12T12:56:06;6.15;;;2.45;;
53052;SDS011;38934;52.690;6.184;2023-08-12T12:58:32;6.93;;;2.35;;
53052;SDS011;38934;52.690;6.184;2023-08-12T13:00:59;5.43;;;2.13;;
53052;SDS011;38934;52.690;6.184;2023-08-12T13:03:25;5.53;;;2.53;;
53052;SDS011;38934;52.690;6.184;2023-08-12T13:05:51;8.15;;;2.20;;
53052;SDS011;38934;52.690;6.184;2023-08-12T13:08:17;6.03;;;2.47;;
53052;SDS011;38934;52.690;6.184;2023-08-12T13:10:42;6.40;;;2.58;;
53052;SDS011;38934;52.690;6.184;2023-08-12T13:13:08;7.18;;;2.35;;
53052;SDS011;38934;52.690;6.184;2023-08-12T13:15:34;7.72;;;2.75;;
53052;SDS011;38934;52.690;6.184;2023-08-12T13:18:00;8.98;;;2.80;;
53052;SDS011;38934;52.690;6.184;2023-08-12T13:20:26;8.30;;;2.53;;
53052;SDS011;38934;52.690;6.184;2023-08-12T13:22:52;6.38;;;2.70;;
53052;SDS011;38934;52.690;6.184;2023-08-12T13:25:17;6.35;;;2.38;;
53052;SDS011;38934;52.690;6.184;2023-08-12T13:27:43;6.13;;;2.63;;
53052;SDS011;38934;52.690;6.184;2023-08-12T13:30:09;9.02;;;2.50;;
53052;SDS011;38934;52.690;6.184;2023-08-12T13:32:36;8.07;;;2.67;;
53052;SDS011;38934;52.690;6.184;2023-08-12T13:35:02;7.15;;;2.35;;
53052;SDS011;38934;52.690;6.184;2023-08-12T13:37:28;6.57;;;2.20;;
53052;SDS011;38934;52.690;6.184;2023-08-12T13:39:57;7.53;;;2.70;;
53052;SDS011;38934;52.690;6.184;2023-08-12T13:42:23;6.10;;;2.55;;
53052;SDS011;38934;52.690;6.184;2023-08-12T13:44:48;6.32;;;2.10;;
53052;SDS011;38934;52.690;6.184;2023-08-12T13:47:14;6.90;;;2.00;;
53052;SDS011;38934;52.690;6.184;2023-08-12T13:49:40;8.38;;;2.53;;
53052;SDS011;38934;52.690;6.184;2023-08-12T13:52:05;10.73;;;2.50;;
53052;SDS011;38934;52.690;6.184;2023-08-12T13:54:31;7.00;;;2.40;;
53052;SDS011;38934;52.690;6.184;2023-08-12T13:56:56;9.07;;;2.70;;
53052;SDS011;38934;52.690;6.184;2023-08-12T13:59:24;7.40;;;2.65;;
53052;SDS011;38934;52.690;6.184;2023-08-12T14:01:49;9.05;;;2.42;;
53052;SDS011;38934;52.690;6.184;2023-08-12T14:04:15;7.72;;;2.78;;
53052;SDS011;38934;52.690;6.184;2023-08-12T14:06:40;9.98;;;2.78;;
53052;SDS011;38934;52.690;6.184;2023-08-12T14:09:06;9.20;;;2.60;;
53052;SDS011;38934;52.690;6.184;2023-08-12T14:11:36;9.02;;;2.60;;
53052;SDS011;38934;52.690;6.184;2023-08-12T14:14:01;9.65;;;2.47;;
53052;SDS011;38934;52.690;6.184;2023-08-12T14:16:28;6.35;;;2.28;;
53052;SDS011;38934;52.690;6.184;2023-08-12T14:18:54;10.48;;;2.30;;
53052;SDS011;38934;52.690;6.184;2023-08-12T14:21:19;9.73;;;2.63;;
53052;SDS011;38934;52.690;6.184;2023-08-12T14:23:45;7.45;;;2.38;;
53052;SDS011;38934;52.690;6.184;2023-08-12T14:26:11;6.97;;;2.30;;
53052;SDS011;38934;52.690;6.184;2023-08-12T14:28:36;10.13;;;2.80;;
53052;SDS011;38934;52.690;6.184;2023-08-12T14:31:02;11.43;;;2.70;;
53052;SDS011;38934;52.690;6.184;2023-08-12T14:33:28;8.98;;;2.30;;
53052;SDS011;38934;52.690;6.184;2023-08-12T14:35:57;6.95;;;2.40;;
53052;SDS011;38934;52.690;6.184;2023-08-12T14:38:23;9.23;;;2.30;;
53052;SDS011;38934;52.690;6.184;2023-08-12T14:40:49;7.45;;;2.40;;
53052;SDS011;38934;52.690;6.184;2023-08-12T14:43:14;7.40;;;2.13;;
53052;SDS011;38934;52.690;6.184;2023-08-12T14:45:40;7.90;;;2.40;;
53052;SDS011;38934;52.690;6.184;2023-08-12T14:48:06;6.80;;;2.33;;
53052;SDS011;38934;52.690;6.184;2023-08-12T14:50:32;7.97;;;2.10;;
53052;SDS011;38934;52.690;6.184;2023-08-12T14:52:57;7.55;;;2.30;;
53052;SDS011;38934;52.690;6.184;2023-08-12T14:55:23;6.40;;;2.25;;
53052;SDS011;38934;52.690;6.184;2023-08-12T14:57:48;7.20;;;2.40;;
53052;SDS011;38934;52.690;6.184;2023-08-12T15:00:14;9.43;;;2.47;;
53052;SDS011;38934;52.690;6.184;2023-08-12T15:02:40;6.63;;;2.17;;
53052;SDS011;38934;52.690;6.184;2023-08-12T15:05:06;7.82;;;2.50;;
53052;SDS011;38934;52.690;6.184;2023-08-12T15:07:32;7.05;;;2.20;;
53052;SDS011;38934;52.690;6.184;2023-08-12T15:09:58;9.52;;;2.55;;
53052;SDS011;38934;52.690;6.184;2023-08-12T15:12:24;9.48;;;2.63;;
53052;SDS011;38934;52.690;6.184;2023-08-12T15:14:50;8.52;;;2.45;;
53052;SDS011;38934;52.690;6.184;2023-08-12T15:17:16;7.30;;;2.33;;
53052;SDS011;38934;52.690;6.184;2023-08-12T15:19:42;5.43;;;2.30;;
53052;SDS011;38934;52.690;6.184;2023-08-12T15:22:07;9.85;;;2.40;;
53052;SDS011;38934;52.690;6.184;2023-08-12T15:24:34;11.05;;;2.33;;
53052;SDS011;38934;52.690;6.184;2023-08-12T15:26:59;6.65;;;2.05;;
53052;SDS011;38934;52.690;6.184;2023-08-12T15:29:25;7.63;;;2.45;;
53052;SDS011;38934;52.690;6.184;2023-08-12T15:31:51;10.73;;;2.50;;
53052;SDS011;38934;52.690;6.184;2023-08-12T15:34:16;8.45;;;2.67;;
53052;SDS011;38934;52.690;6.184;2023-08-12T15:36:43;7.43;;;2.20;;
53052;SDS011;38934;52.690;6.184;2023-08-12T15:39:11;9.52;;;2.20;;
53052;SDS011;38934;52.690;6.184;2023-08-12T15:41:40;8.70;;;2.90;;
53052;SDS011;38934;52.690;6.184;2023-08-12T15:44:08;9.32;;;2.67;;
53052;SDS011;38934;52.690;6.184;2023-08-12T15:46:34;7.13;;;2.17;;
53052;SDS011;38934;52.690;6.184;2023-08-12T15:49:00;6.82;;;2.35;;
53052;SDS011;38934;52.690;6.184;2023-08-12T15:51:30;6.18;;;2.45;;
53052;SDS011;38934;52.690;6.184;2023-08-12T15:53:59;8.40;;;2.53;;
53052;SDS011;38934;52.690;6.184;2023-08-12T15:56:24;5.85;;;2.45;;
53052;SDS011;38934;52.690;6.184;2023-08-12T15:58:50;6.88;;;2.28;;
53052;SDS011;38934;52.690;6.184;2023-08-12T16:01:18;8.27;;;3.10;;
53052;SDS011;38934;52.690;6.184;2023-08-12T16:03:44;8.20;;;2.67;;
53052;SDS011;38934;52.690;6.184;2023-08-12T16:06:10;5.78;;;2.53;;
53052;SDS011;38934;52.690;6.184;2023-08-12T16:08:36;10.15;;;2.40;;
53052;SDS011;38934;52.690;6.184;2023-08-12T16:11:02;8.15;;;2.80;;
53052;SDS011;38934;52.690;6.184;2023-08-12T16:13:27;9.55;;;2.35;;
53052;SDS011;38934;52.690;6.184;2023-08-12T16:15:53;7.15;;;2.50;;
53052;SDS011;38934;52.690;6.184;2023-08-12T16:18:19;11.02;;;2.90;;